createdAt,value
2017-04-18T00:00:32.860Z,1000.82
2017-04-18T00:01:32.893Z,1000.8
2017-04-18T00:02:32.926Z,1000.81
2017-04-18T00:03:32.960Z,1000.79
2017-04-18T00:04:32.994Z,1000.83
2017-04-18T00:05:33.026Z,1000.8
2017-04-18T00:06:33.059Z,1000.79
2017-04-18T00:07:33.093Z,1000.84
2017-04-18T00:08:33.127Z,1000.84
2017-04-18T00:09:33.159Z,1000.8
2017-04-18T00:10:33.193Z,1000.76
2017-04-18T00:11:33.228Z,1000.79
2017-04-18T00:12:33.267Z,1000.79
2017-04-18T00:13:33.293Z,1000.81
2017-04-18T00:14:33.328Z,1000.79
2017-04-18T00:15:33.361Z,1000.76
2017-04-18T00:16:33.395Z,1000.79
2017-04-18T00:17:33.428Z,1000.79
2017-04-18T00:18:33.461Z,1000.78
2017-04-18T00:19:33.495Z,1000.77
2017-04-18T00:20:33.528Z,1000.78
2017-04-18T00:21:33.561Z,1000.78
2017-04-18T00:22:33.596Z,1000.76
2017-04-18T00:23:33.629Z,1000.76
2017-04-18T00:24:33.663Z,1000.77
2017-04-18T00:25:33.695Z,1000.74
2017-04-18T00:26:33.729Z,1000.72
2017-04-18T00:27:33.763Z,1000.73
2017-04-18T00:28:33.795Z,1000.7
2017-04-18T00:29:33.829Z,1000.69
2017-04-18T00:30:33.863Z,1000.69
2017-04-18T00:31:33.896Z,1000.71
2017-04-18T00:32:33.931Z,1000.68
2017-04-18T00:33:33.963Z,1000.66
2017-04-18T00:34:33.998Z,1000.63
2017-04-18T00:35:34.029Z,1000.66
2017-04-18T00:36:34.064Z,1000.67
2017-04-18T00:37:34.098Z,1000.66
2017-04-18T00:38:34.131Z,1000.66
2017-04-18T00:39:34.163Z,1000.69
2017-04-18T00:40:34.199Z,1000.69
2017-04-18T00:41:34.232Z,1000.7
2017-04-18T00:42:34.264Z,1000.69
2017-04-18T00:43:34.297Z,1000.7
2017-04-18T00:44:34.332Z,1000.74
2017-04-18T00:45:34.364Z,1000.71
2017-04-18T00:46:34.397Z,1000.7
2017-04-18T00:47:34.433Z,1000.7
2017-04-18T00:48:34.465Z,1000.71
2017-04-18T00:49:34.499Z,1000.73
2017-04-18T00:50:34.533Z,1000.73
2017-04-18T00:51:34.565Z,1000.72
2017-04-18T00:52:34.599Z,1000.7
2017-04-18T00:53:34.631Z,1000.7
2017-04-18T00:54:34.666Z,1000.72
2017-04-18T00:55:34.701Z,1000.73
2017-04-18T00:56:34.733Z,1000.69
2017-04-18T00:57:34.766Z,1000.68
2017-04-18T00:58:34.800Z,1000.71
2017-04-18T00:59:34.833Z,1000.69
2017-04-18T01:00:34.865Z,1000.69
2017-04-18T01:01:34.899Z,1000.72
2017-04-18T01:02:34.934Z,1000.74
2017-04-18T01:03:34.967Z,1000.7
2017-04-18T01:04:35.001Z,1000.72
2017-04-18T01:05:35.032Z,1000.69
2017-04-18T01:06:35.066Z,1000.72
2017-04-18T01:07:35.099Z,1000.69
2017-04-18T01:08:35.132Z,1000.67
2017-04-18T01:09:35.165Z,1000.71
2017-04-18T01:10:35.200Z,1000.67
2017-04-18T01:11:35.232Z,1000.66
2017-04-18T01:12:35.265Z,1000.66
2017-04-18T01:13:35.298Z,1000.64
2017-04-18T01:14:35.333Z,1000.65
2017-04-18T01:15:35.364Z,1000.63
2017-04-18T01:16:35.398Z,1000.63
2017-04-18T01:17:35.435Z,1000.62
2017-04-18T01:18:35.466Z,1000.62
2017-04-18T01:19:35.497Z,1000.66
2017-04-18T01:20:35.530Z,1000.63
2017-04-18T01:21:35.565Z,1000.62
2017-04-18T01:22:35.596Z,1000.65
2017-04-18T01:23:35.631Z,1000.66
2017-04-18T01:24:35.663Z,1000.66
2017-04-18T01:25:35.698Z,1000.63
2017-04-18T01:26:35.729Z,1000.61
2017-04-18T01:27:35.763Z,1000.69
2017-04-18T01:28:35.796Z,1000.63
2017-04-18T01:29:35.839Z,1000.65
2017-04-18T01:30:35.861Z,1000.64
2017-04-18T01:31:35.895Z,1000.61
2017-04-18T01:32:35.930Z,1000.61
2017-04-18T01:33:35.962Z,1000.62
2017-04-18T01:34:35.996Z,1000.56
2017-04-18T01:35:36.028Z,1000.61
2017-04-18T01:36:36.062Z,1000.62
2017-04-18T01:37:36.095Z,1000.62
2017-04-18T01:38:36.129Z,1000.64
2017-04-18T01:39:36.160Z,1000.61
2017-04-18T01:40:36.194Z,1000.63
2017-04-18T01:41:36.225Z,1000.67
2017-04-18T01:42:36.259Z,1000.67
2017-04-18T01:43:36.294Z,1000.65
2017-04-18T01:44:36.324Z,1000.68
2017-04-18T01:45:36.384Z,1000.69
2017-04-18T01:46:36.392Z,1000.7
2017-04-18T01:47:36.426Z,1000.7
2017-04-18T01:48:36.456Z,1000.71
2017-04-18T01:49:36.489Z,1000.69
2017-04-18T01:50:36.525Z,1000.72
2017-04-18T01:51:36.556Z,1000.73
2017-04-18T01:52:36.590Z,1000.7
2017-04-18T01:53:36.622Z,1000.76
2017-04-18T01:54:36.656Z,1000.73
2017-04-18T01:55:36.689Z,1000.78
2017-04-18T01:56:36.722Z,1000.82
2017-04-18T01:57:36.755Z,1000.81
2017-04-18T01:58:36.787Z,1000.8
2017-04-18T01:59:36.821Z,1000.88
2017-04-18T02:00:36.854Z,1000.82
2017-04-18T02:01:36.888Z,1000.84
2017-04-18T02:02:36.921Z,1000.84
2017-04-18T02:03:36.954Z,1000.88
2017-04-18T02:04:36.987Z,1000.85
2017-04-18T02:05:37.019Z,1000.88
2017-04-18T02:06:37.052Z,1000.85
2017-04-18T02:07:37.085Z,1000.85
2017-04-18T02:08:37.118Z,1000.88
2017-04-18T02:09:37.151Z,1000.9
2017-04-18T02:10:37.184Z,1000.87
2017-04-18T02:11:37.218Z,1000.92
2017-04-18T02:12:37.251Z,1000.87
2017-04-18T02:13:37.285Z,1000.91
2017-04-18T02:14:37.319Z,1000.91
2017-04-18T02:15:37.350Z,1000.92
2017-04-18T02:16:37.383Z,1000.96
2017-04-18T02:17:37.416Z,1000.96
2017-04-18T02:18:37.448Z,1000.94
2017-04-18T02:19:37.482Z,1000.99
2017-04-18T02:20:37.514Z,1000.99
2017-04-18T02:21:37.546Z,1000.97
2017-04-18T02:22:37.580Z,1000.97
2017-04-18T02:23:37.617Z,1000.98
2017-04-18T02:24:37.647Z,1000.95
2017-04-18T02:25:37.678Z,1000.94
2017-04-18T02:26:37.713Z,1000.98
2017-04-18T02:27:37.747Z,1000.98
2017-04-18T02:28:37.780Z,1000.98
2017-04-18T02:29:37.811Z,1000.95
2017-04-18T02:30:37.846Z,1000.95
2017-04-18T02:31:37.880Z,1000.95
2017-04-18T02:32:37.910Z,1000.92
2017-04-18T02:33:37.945Z,1000.93
2017-04-18T02:34:37.976Z,1000.92
2017-04-18T02:35:38.010Z,1000.93
2017-04-18T02:36:38.042Z,1000.97
2017-04-18T02:37:38.076Z,1000.93
2017-04-18T02:38:38.114Z,1000.96
2017-04-18T02:39:38.142Z,1000.98
2017-04-18T02:40:38.177Z,1000.98
2017-04-18T02:41:38.206Z,1001
2017-04-18T02:42:38.242Z,1001.02
2017-04-18T02:43:38.272Z,1001.01
2017-04-18T02:44:38.307Z,1001.01
2017-04-18T02:45:38.340Z,1001.02
2017-04-18T02:46:38.373Z,1000.99
2017-04-18T02:47:38.407Z,1001.05
2017-04-18T02:48:38.438Z,1001.04
2017-04-18T02:49:38.496Z,1001.02
2017-04-18T02:50:38.503Z,1001.02
2017-04-18T02:51:38.537Z,1001.02
2017-04-18T02:52:38.571Z,1001.03
2017-04-18T02:53:38.603Z,1001.05
2017-04-18T02:54:38.636Z,1001.04
2017-04-18T02:55:38.669Z,1001.04
2017-04-18T02:56:38.702Z,1001.05
2017-04-18T02:57:38.735Z,1001.04
2017-04-18T02:58:38.768Z,1001.02
2017-04-18T02:59:38.800Z,1001.08
2017-04-18T03:00:38.834Z,1001.08
2017-04-18T03:01:38.866Z,1001.11
2017-04-18T03:02:38.900Z,1001.11
2017-04-18T03:03:38.934Z,1001.09
2017-04-18T03:04:38.965Z,1001.12
2017-04-18T03:05:38.998Z,1001.08
2017-04-18T03:06:39.030Z,1001.11
2017-04-18T03:07:39.065Z,1001.09
2017-04-18T03:08:39.098Z,1001.17
2017-04-18T03:09:39.130Z,1001.16
2017-04-18T03:10:39.161Z,1001.14
2017-04-18T03:11:39.197Z,1001.21
2017-04-18T03:12:39.232Z,1001.22
2017-04-18T03:13:39.262Z,1001.17
2017-04-18T03:14:39.294Z,1001.17
2017-04-18T03:15:39.327Z,1001.17
2017-04-18T03:16:39.361Z,1001.23
2017-04-18T03:17:39.393Z,1001.22
2017-04-18T03:18:39.425Z,1001.19
2017-04-18T03:19:39.457Z,1001.16
2017-04-18T03:20:39.491Z,1001.2
2017-04-18T03:21:39.523Z,1001.18
2017-04-18T03:22:39.557Z,1001.19
2017-04-18T03:23:39.593Z,1001.15
2017-04-18T03:24:39.623Z,1001.17
2017-04-18T03:25:39.656Z,1001.17
2017-04-18T03:26:39.688Z,1001.16
2017-04-18T03:27:39.744Z,1001.17
2017-04-18T03:28:39.760Z,1001.17
2017-04-18T03:29:39.787Z,1001.17
2017-04-18T03:30:39.825Z,1001.18
2017-04-18T03:31:39.851Z,1001.17
2017-04-18T03:32:39.887Z,1001.17
2017-04-18T03:33:39.918Z,1001.2
2017-04-18T03:34:39.949Z,1001.21
2017-04-18T03:35:39.984Z,1001.24
2017-04-18T03:36:40.017Z,1001.2
2017-04-18T03:37:40.049Z,1001.21
2017-04-18T03:38:40.081Z,1001.25
2017-04-18T03:39:40.116Z,1001.21
2017-04-18T03:40:40.148Z,1001.25
2017-04-18T03:41:40.179Z,1001.25
2017-04-18T03:42:40.212Z,1001.27
2017-04-18T03:43:40.246Z,1001.28
2017-04-18T03:44:40.278Z,1001.22
2017-04-18T03:45:40.312Z,1001.29
2017-04-18T03:46:40.344Z,1001.28
2017-04-18T03:47:40.379Z,1001.3
2017-04-18T03:48:40.411Z,1001.31
2017-04-18T03:49:40.443Z,1001.31
2017-04-18T03:50:40.475Z,1001.3
2017-04-18T03:51:40.508Z,1001.29
2017-04-18T03:52:40.540Z,1001.3
2017-04-18T03:53:40.572Z,1001.33
2017-04-18T03:54:40.607Z,1001.33
2017-04-18T03:55:40.640Z,1001.36
2017-04-18T03:56:40.671Z,1001.37
2017-04-18T03:57:40.704Z,1001.36
2017-04-18T03:58:40.736Z,1001.34
2017-04-18T03:59:40.771Z,1001.4
2017-04-18T04:00:40.803Z,1001.34
2017-04-18T04:01:40.836Z,1001.38
2017-04-18T04:02:40.869Z,1001.38
2017-04-18T04:03:40.901Z,1001.42
2017-04-18T04:04:40.937Z,1001.38
2017-04-18T04:05:40.967Z,1001.37
2017-04-18T04:06:41.001Z,1001.4
2017-04-18T04:07:41.033Z,1001.37
2017-04-18T04:08:41.066Z,1001.39
2017-04-18T04:09:41.098Z,1001.39
2017-04-18T04:10:41.131Z,1001.39
2017-04-18T04:11:41.163Z,1001.37
2017-04-18T04:12:41.198Z,1001.37
2017-04-18T04:13:41.231Z,1001.35
2017-04-18T04:14:41.263Z,1001.38
2017-04-18T04:15:41.293Z,1001.38
2017-04-18T04:16:41.328Z,1001.36
2017-04-18T04:17:41.362Z,1001.37
2017-04-18T04:18:41.394Z,1001.36
2017-04-18T04:19:41.425Z,1001.39
2017-04-18T04:20:41.459Z,1001.37
2017-04-18T04:21:41.492Z,1001.37
2017-04-18T04:22:41.525Z,1001.41
2017-04-18T04:23:41.557Z,1001.39
2017-04-18T04:24:41.590Z,1001.43
2017-04-18T04:25:41.622Z,1001.4
2017-04-18T04:26:41.659Z,1001.45
2017-04-18T04:27:41.687Z,1001.46
2017-04-18T04:28:41.722Z,1001.44
2017-04-18T04:29:41.751Z,1001.46
2017-04-18T04:30:41.787Z,1001.45
2017-04-18T04:31:41.821Z,1001.47
2017-04-18T04:32:41.851Z,1001.49
2017-04-18T04:33:41.887Z,1001.49
2017-04-18T04:34:41.916Z,1001.44
2017-04-18T04:35:41.951Z,1001.5
2017-04-18T04:36:41.983Z,1001.48
2017-04-18T04:37:42.016Z,1001.51
2017-04-18T04:38:42.048Z,1001.5
2017-04-18T04:39:42.083Z,1001.49
2017-04-18T04:40:42.114Z,1001.51
2017-04-18T04:41:42.147Z,1001.54
2017-04-18T04:42:42.179Z,1001.56
2017-04-18T04:43:42.213Z,1001.54
2017-04-18T04:44:42.246Z,1001.55
2017-04-18T04:45:42.280Z,1001.59
2017-04-18T04:46:42.312Z,1001.62
2017-04-18T04:47:42.345Z,1001.64
2017-04-18T04:48:42.378Z,1001.62
2017-04-18T04:49:42.410Z,1001.59
2017-04-18T04:50:42.444Z,1001.61
2017-04-18T04:51:42.475Z,1001.64
2017-04-18T04:52:42.510Z,1001.67
2017-04-18T04:53:42.542Z,1001.67
2017-04-18T04:54:42.574Z,1001.66
2017-04-18T04:55:42.607Z,1001.65
2017-04-18T04:56:42.642Z,1001.72
2017-04-18T04:57:42.674Z,1001.68
2017-04-18T04:58:42.707Z,1001.73
2017-04-18T04:59:42.739Z,1001.75
2017-04-18T05:00:42.774Z,1001.75
2017-04-18T05:01:42.806Z,1001.76
2017-04-18T05:02:42.840Z,1001.74
2017-04-18T05:03:42.873Z,1001.78
2017-04-18T05:04:42.907Z,1001.79
2017-04-18T05:05:42.938Z,1001.8
2017-04-18T05:06:42.971Z,1001.78
2017-04-18T05:07:43.004Z,1001.81
2017-04-18T05:08:43.040Z,1001.79
2017-04-18T05:09:43.071Z,1001.84
2017-04-18T05:10:43.102Z,1001.8
2017-04-18T05:11:43.139Z,1001.83
2017-04-18T05:12:43.169Z,1001.82
2017-04-18T05:13:43.204Z,1001.83
2017-04-18T05:14:43.235Z,1001.85
2017-04-18T05:15:43.269Z,1001.84
2017-04-18T05:16:43.303Z,1001.91
2017-04-18T05:17:43.339Z,1001.9
2017-04-18T05:18:43.369Z,1001.85
2017-04-18T05:19:43.403Z,1001.88
2017-04-18T05:20:43.435Z,1001.9
2017-04-18T05:21:43.467Z,1001.89
2017-04-18T05:22:43.501Z,1001.9
2017-04-18T05:23:43.536Z,1001.96
2017-04-18T05:24:43.567Z,1001.94
2017-04-18T05:25:43.604Z,1001.93
2017-04-18T05:26:43.634Z,1001.93
2017-04-18T05:27:43.666Z,1001.93
2017-04-18T05:28:43.699Z,1001.95
2017-04-18T05:29:43.734Z,1001.98
2017-04-18T05:30:43.765Z,1002
2017-04-18T05:31:43.798Z,1002.01
2017-04-18T05:32:43.833Z,1002
2017-04-18T05:33:43.866Z,1002.02
2017-04-18T05:34:43.898Z,1002.04
2017-04-18T05:35:43.932Z,1002.03
2017-04-18T05:36:43.966Z,1002.05
2017-04-18T05:37:44.000Z,1002.07
2017-04-18T05:38:44.032Z,1002.1
2017-04-18T05:39:44.072Z,1002.09
2017-04-18T05:40:44.097Z,1002.1
2017-04-18T05:41:44.139Z,1002.1
2017-04-18T05:42:44.163Z,1002.09
2017-04-18T05:43:44.198Z,1002.13
2017-04-18T05:44:44.230Z,1002.14
2017-04-18T05:45:44.262Z,1002.16
2017-04-18T05:46:44.295Z,1002.16
2017-04-18T05:47:44.331Z,1002.15
2017-04-18T05:48:44.364Z,1002.17
2017-04-18T05:49:44.395Z,1002.18
2017-04-18T05:50:44.427Z,1002.2
2017-04-18T05:51:44.464Z,1002.2
2017-04-18T05:52:44.495Z,1002.2
2017-04-18T05:53:44.527Z,1002.22
2017-04-18T05:54:44.561Z,1002.23
2017-04-18T05:55:44.594Z,1002.25
2017-04-18T05:56:44.628Z,1002.25
2017-04-18T05:57:44.661Z,1002.23
2017-04-18T05:58:44.693Z,1002.24
2017-04-18T05:59:44.728Z,1002.22
2017-04-18T06:00:44.759Z,1002.26
2017-04-18T06:01:44.793Z,1002.26
2017-04-18T06:02:44.828Z,1002.26
2017-04-18T06:03:44.860Z,1002.27
2017-04-18T06:04:44.894Z,1002.27
2017-04-18T06:05:44.925Z,1002.3
2017-04-18T06:06:44.959Z,1002.31
2017-04-18T06:07:44.993Z,1002.32
2017-04-18T06:08:45.042Z,1002.31
2017-04-18T06:09:45.059Z,1002.33
2017-04-18T06:10:45.093Z,1002.33
2017-04-18T06:11:45.126Z,1002.33
2017-04-18T06:12:45.159Z,1002.34
2017-04-18T06:13:45.193Z,1002.35
2017-04-18T06:14:45.225Z,1002.35
2017-04-18T06:15:45.258Z,1002.36
2017-04-18T06:16:45.291Z,1002.36
2017-04-18T06:17:45.325Z,1002.39
2017-04-18T06:18:45.359Z,1002.36
2017-04-18T06:19:45.391Z,1002.47
2017-04-18T06:20:45.424Z,1002.4
2017-04-18T06:21:45.458Z,1002.42
2017-04-18T06:22:45.490Z,1002.44
2017-04-18T06:23:45.525Z,1002.44
2017-04-18T06:24:45.558Z,1002.46
2017-04-18T06:25:45.593Z,1002.5
2017-04-18T06:26:45.625Z,1002.51
2017-04-18T06:27:45.660Z,1002.53
2017-04-18T06:28:45.693Z,1002.53
2017-04-18T06:29:45.725Z,1002.51
2017-04-18T06:30:45.759Z,1002.53
2017-04-18T06:31:45.794Z,1002.56
2017-04-18T06:32:45.828Z,1002.56
2017-04-18T06:33:45.860Z,1002.59
2017-04-18T06:34:45.895Z,1002.57
2017-04-18T06:35:45.928Z,1002.56
2017-04-18T06:36:45.962Z,1002.61
2017-04-18T06:37:45.995Z,1002.62
2017-04-18T06:38:46.037Z,1002.62
2017-04-18T06:39:46.064Z,1002.64
2017-04-18T06:40:46.097Z,1002.65
2017-04-18T06:41:46.130Z,1002.68
2017-04-18T06:42:46.164Z,1002.66
2017-04-18T06:43:46.197Z,1002.69
2017-04-18T06:44:46.232Z,1002.71
2017-04-18T06:45:46.265Z,1002.73
2017-04-18T06:46:46.301Z,1002.76
2017-04-18T06:47:46.335Z,1002.75
2017-04-18T06:48:46.368Z,1002.77
2017-04-18T06:49:46.399Z,1002.73
2017-04-18T06:50:46.435Z,1002.77
2017-04-18T06:51:46.467Z,1002.77
2017-04-18T06:52:46.500Z,1002.76
2017-04-18T06:53:46.535Z,1002.76
2017-04-18T06:54:46.570Z,1002.73
2017-04-18T06:55:46.602Z,1002.78
2017-04-18T06:56:46.637Z,1002.8
2017-04-18T06:57:46.670Z,1002.85
2017-04-18T06:58:46.704Z,1002.84
2017-04-18T06:59:46.736Z,1002.89
2017-04-18T07:00:46.770Z,1002.93
2017-04-18T07:01:46.806Z,1002.91
2017-04-18T07:02:46.839Z,1002.93
2017-04-18T07:03:46.871Z,1002.94
2017-04-18T07:04:46.904Z,1002.97
2017-04-18T07:05:46.941Z,1002.97
2017-04-18T07:06:46.971Z,1002.96
2017-04-18T07:07:47.006Z,1003
2017-04-18T07:08:47.041Z,1003.06
2017-04-18T07:09:47.072Z,1003.07
2017-04-18T07:10:47.107Z,1003.09
2017-04-18T07:11:47.141Z,1003.1
2017-04-18T07:12:47.174Z,1003.13
2017-04-18T07:13:47.208Z,1003.1
2017-04-18T07:14:47.241Z,1003.11
2017-04-18T07:15:47.275Z,1003.1
2017-04-18T07:16:47.310Z,1003.16
2017-04-18T07:17:47.345Z,1003.12
2017-04-18T07:18:47.379Z,1003.18
2017-04-18T07:19:47.415Z,1003.21
2017-04-18T07:20:47.449Z,1003.23
2017-04-18T07:21:47.486Z,1003.21
2017-04-18T07:22:47.522Z,1003.26
2017-04-18T07:23:47.559Z,1003.28
2017-04-18T07:24:47.599Z,1003.28
2017-04-18T07:25:47.631Z,1003.21
2017-04-18T07:26:47.668Z,1003.22
2017-04-18T07:27:47.703Z,1003.28
2017-04-18T07:28:47.740Z,1003.25
2017-04-18T07:29:47.775Z,1003.32
2017-04-18T07:30:47.810Z,1003.36
2017-04-18T07:31:47.846Z,1003.32
2017-04-18T07:32:47.882Z,1003.35
2017-04-18T07:33:47.919Z,1003.36
2017-04-18T07:34:47.953Z,1003.39
2017-04-18T07:35:47.991Z,1003.41
2017-04-18T07:36:48.024Z,1003.41
2017-04-18T07:37:48.062Z,1003.43
2017-04-18T07:38:48.098Z,1003.41
2017-04-18T07:39:48.133Z,1003.42
2017-04-18T07:40:48.170Z,1003.37
2017-04-18T07:41:48.204Z,1003.43
2017-04-18T07:42:48.240Z,1003.4
2017-04-18T07:43:48.275Z,1003.41
2017-04-18T07:44:48.311Z,1003.39
2017-04-18T07:45:48.345Z,1003.41
2017-04-18T07:46:48.381Z,1003.44
2017-04-18T07:47:48.417Z,1003.48
2017-04-18T07:48:48.453Z,1003.5
2017-04-18T07:49:48.487Z,1003.49
2017-04-18T07:50:48.523Z,1003.55
2017-04-18T07:51:48.557Z,1003.52
2017-04-18T07:52:48.593Z,1003.51
2017-04-18T07:53:48.628Z,1003.55
2017-04-18T07:54:48.671Z,1003.53
2017-04-18T07:55:48.699Z,1003.52
2017-04-18T07:56:48.734Z,1003.55
2017-04-18T07:57:48.770Z,1003.55
2017-04-18T07:58:48.806Z,1003.6
2017-04-18T07:59:48.843Z,1003.63
2017-04-18T08:00:48.877Z,1003.61
2017-04-18T08:01:48.910Z,1003.64
2017-04-18T08:02:48.948Z,1003.63
2017-04-18T08:03:48.983Z,1003.67
2017-04-18T08:04:49.016Z,1003.65
2017-04-18T08:05:49.052Z,1003.68
2017-04-18T08:06:49.087Z,1003.7
2017-04-18T08:07:49.122Z,1003.72
2017-04-18T08:08:49.158Z,1003.73
2017-04-18T08:09:49.193Z,1003.78
2017-04-18T08:10:49.227Z,1003.83
2017-04-18T08:11:49.262Z,1003.78
2017-04-18T08:12:49.298Z,1003.81
2017-04-18T08:13:49.332Z,1003.85
2017-04-18T08:14:49.369Z,1003.87
2017-04-18T08:15:49.401Z,1003.87
2017-04-18T08:16:49.438Z,1003.93
2017-04-18T08:17:49.473Z,1003.96
2017-04-18T08:18:49.508Z,1003.99
2017-04-18T08:19:49.541Z,1003.97
2017-04-18T08:20:49.577Z,1003.99
2017-04-18T08:21:49.613Z,1004.02
2017-04-18T08:22:49.647Z,1004.03
2017-04-18T08:23:49.682Z,1004.01
2017-04-18T08:24:49.716Z,1004.05
2017-04-18T08:25:49.751Z,1004.06
2017-04-18T08:26:49.785Z,1004.05
2017-04-18T08:27:49.821Z,1004.1
2017-04-18T08:28:49.854Z,1004.09
2017-04-18T08:29:49.889Z,1004.09
2017-04-18T08:30:49.923Z,1004.12
2017-04-18T08:31:49.958Z,1004.11
2017-04-18T08:32:49.991Z,1004.13
2017-04-18T08:33:50.027Z,1004.15
2017-04-18T08:34:50.059Z,1004.18
2017-04-18T08:35:50.094Z,1004.21
2017-04-18T08:36:50.130Z,1004.22
2017-04-18T08:37:50.160Z,1004.23
2017-04-18T08:38:50.198Z,1004.23
2017-04-18T08:39:50.229Z,1004.24
2017-04-18T08:40:50.265Z,1004.28
2017-04-18T08:41:50.298Z,1004.28
2017-04-18T08:42:50.331Z,1004.27
2017-04-18T08:43:50.366Z,1004.32
2017-04-18T08:44:50.400Z,1004.3
2017-04-18T08:45:50.435Z,1004.34
2017-04-18T08:46:50.469Z,1004.37
2017-04-18T08:47:50.502Z,1004.32
2017-04-18T08:48:50.537Z,1004.36
2017-04-18T08:49:50.570Z,1004.37
2017-04-18T08:50:50.603Z,1004.37
2017-04-18T08:51:50.638Z,1004.36
2017-04-18T08:52:50.671Z,1004.47
2017-04-18T08:53:50.705Z,1004.39
2017-04-18T08:54:50.739Z,1004.43
2017-04-18T08:55:50.773Z,1004.46
2017-04-18T08:56:50.805Z,1004.48
2017-04-18T08:57:50.842Z,1004.48
2017-04-18T08:58:50.874Z,1004.51
2017-04-18T08:59:50.907Z,1004.52
2017-04-18T09:00:50.941Z,1004.53
2017-04-18T09:01:50.976Z,1004.57
2017-04-18T09:02:51.011Z,1004.57
2017-04-18T09:03:51.044Z,1004.57
2017-04-18T09:04:51.079Z,1004.62
2017-04-18T09:05:51.112Z,1004.66
2017-04-18T09:06:51.146Z,1004.66
2017-04-18T09:07:51.181Z,1004.68
2017-04-18T09:08:51.216Z,1004.63
2017-04-18T09:09:51.251Z,1004.63
2017-04-18T09:10:51.284Z,1004.67
2017-04-18T09:11:51.327Z,1004.66
2017-04-18T09:12:51.353Z,1004.68
2017-04-18T09:13:51.388Z,1004.7
2017-04-18T09:14:51.421Z,1004.7
2017-04-18T09:15:51.458Z,1004.76
2017-04-18T09:16:51.492Z,1004.72
2017-04-18T09:17:51.527Z,1004.76
2017-04-18T09:18:51.562Z,1004.78
2017-04-18T09:19:51.596Z,1004.74
2017-04-18T09:20:51.633Z,1004.77
2017-04-18T09:21:51.668Z,1004.72
2017-04-18T09:22:51.703Z,1004.72
2017-04-18T09:23:51.737Z,1004.72
2017-04-18T09:24:51.774Z,1004.78
2017-04-18T09:25:51.811Z,1004.76
2017-04-18T09:26:51.843Z,1004.8
2017-04-18T09:27:51.879Z,1004.77
2017-04-18T09:28:51.925Z,1004.83
2017-04-18T09:29:51.951Z,1004.76
2017-04-18T09:30:51.988Z,1004.8
2017-04-18T09:31:52.026Z,1004.79
2017-04-18T09:32:52.059Z,1004.79
2017-04-18T09:33:52.096Z,1004.83
2017-04-18T09:34:52.134Z,1004.84
2017-04-18T09:35:52.173Z,1004.82
2017-04-18T09:36:52.205Z,1004.77
2017-04-18T09:37:52.243Z,1004.89
2017-04-18T09:38:52.280Z,1004.9
2017-04-18T09:39:52.316Z,1004.88
2017-04-18T09:40:52.352Z,1004.85
2017-04-18T09:41:52.388Z,1004.89
2017-04-18T09:42:52.425Z,1004.9
2017-04-18T09:43:52.460Z,1004.95
2017-04-18T09:44:52.498Z,1005.01
2017-04-18T09:45:52.533Z,1005.01
2017-04-18T09:46:52.570Z,1005.06
2017-04-18T09:47:52.607Z,1005.06
2017-04-18T09:48:52.641Z,1005.17
2017-04-18T09:49:52.676Z,1005.12
2017-04-18T09:50:52.712Z,1005.15
2017-04-18T09:51:52.747Z,1005.14
2017-04-18T09:52:52.783Z,1005.19
2017-04-18T09:53:52.821Z,1005.18
2017-04-18T09:54:52.854Z,1005.18
2017-04-18T09:55:52.890Z,1005.2
2017-04-18T09:56:52.925Z,1005.17
2017-04-18T09:57:52.962Z,1005.24
2017-04-18T09:58:52.995Z,1005.2
2017-04-18T09:59:53.032Z,1005.19
2017-04-18T10:00:53.066Z,1005.28
2017-04-18T10:01:53.101Z,1005.22
2017-04-18T10:02:53.137Z,1005.35
2017-04-18T10:03:53.172Z,1005.23
2017-04-18T10:04:53.208Z,1005.19
2017-04-18T10:05:53.241Z,1005.26
2017-04-18T10:06:53.279Z,1005.26
2017-04-18T10:07:53.314Z,1005.3
2017-04-18T10:08:53.351Z,1005.34
2017-04-18T10:09:53.386Z,1005.24
2017-04-18T10:10:53.439Z,1005.27
2017-04-18T10:11:53.459Z,1005.31
2017-04-18T10:12:53.494Z,1005.34
2017-04-18T10:13:53.532Z,1005.37
2017-04-18T10:14:53.568Z,1005.38
2017-04-18T10:15:53.606Z,1005.36
2017-04-18T10:16:53.650Z,1005.44
2017-04-18T10:17:53.679Z,1005.45
2017-04-18T10:18:53.716Z,1005.37
2017-04-18T10:19:53.755Z,1005.4
2017-04-18T10:20:53.792Z,1005.4
2017-04-18T10:21:53.830Z,1005.43
2017-04-18T10:22:53.868Z,1005.44
2017-04-18T10:23:53.904Z,1005.4
2017-04-18T10:24:53.942Z,1005.36
2017-04-18T10:25:53.980Z,1005.36
2017-04-18T10:26:54.018Z,1005.33
2017-04-18T10:27:54.054Z,1005.32
2017-04-18T10:28:54.092Z,1005.34
2017-04-18T10:29:54.130Z,1005.33
2017-04-18T10:30:54.195Z,1005.33
2017-04-18T10:31:54.203Z,1005.35
2017-04-18T10:32:54.238Z,1005.37
2017-04-18T10:33:54.275Z,1005.35
2017-04-18T10:34:54.313Z,1005.31
2017-04-18T10:35:54.348Z,1005.36
2017-04-18T10:36:54.387Z,1005.34
2017-04-18T10:37:54.423Z,1005.34
2017-04-18T10:38:54.458Z,1005.33
2017-04-18T10:39:54.496Z,1005.31
2017-04-18T10:40:54.531Z,1005.35
2017-04-18T10:41:54.566Z,1005.34
2017-04-18T10:42:54.604Z,1005.3
2017-04-18T10:43:54.640Z,1005.37
2017-04-18T10:44:54.674Z,1005.4
2017-04-18T10:45:54.710Z,1005.37
2017-04-18T10:46:54.746Z,1005.42
2017-04-18T10:47:54.783Z,1005.52
2017-04-18T10:48:54.818Z,1005.45
2017-04-18T10:49:54.853Z,1005.46
2017-04-18T10:50:54.894Z,1005.47
2017-04-18T10:51:54.924Z,1005.53
2017-04-18T10:52:54.959Z,1005.53
2017-04-18T10:53:54.994Z,1005.52
2017-04-18T10:54:55.032Z,1005.56
2017-04-18T10:55:55.066Z,1005.64
2017-04-18T10:56:55.100Z,1005.65
2017-04-18T10:57:55.135Z,1005.71
2017-04-18T10:58:55.173Z,1005.7
2017-04-18T10:59:55.207Z,1005.7
2017-04-18T11:00:55.239Z,1005.67
2017-04-18T11:01:55.276Z,1005.65
2017-04-18T11:02:55.311Z,1005.71
2017-04-18T11:03:55.345Z,1005.71
2017-04-18T11:04:55.379Z,1005.69
2017-04-18T11:05:55.415Z,1005.7
2017-04-18T11:06:55.449Z,1005.69
2017-04-18T11:07:55.484Z,1005.78
2017-04-18T11:08:55.518Z,1005.79
2017-04-18T11:09:55.553Z,1005.79
2017-04-18T11:10:55.587Z,1005.78
2017-04-18T11:11:55.621Z,1005.84
2017-04-18T11:12:55.656Z,1005.83
2017-04-18T11:13:55.690Z,1005.83
2017-04-18T11:14:55.724Z,1005.9
2017-04-18T11:15:55.757Z,1005.92
2017-04-18T11:16:55.792Z,1005.94
2017-04-18T11:17:55.829Z,1005.94
2017-04-18T11:18:55.861Z,1005.94
2017-04-18T11:19:55.894Z,1005.98
2017-04-18T11:20:55.930Z,1006.03
2017-04-18T11:21:55.963Z,1006.02
2017-04-18T11:22:55.997Z,1006.03
2017-04-18T11:23:56.033Z,1006.03
2017-04-18T11:24:56.066Z,1005.97
2017-04-18T11:25:56.100Z,1006.07
2017-04-18T11:26:56.133Z,1006.06
2017-04-18T11:27:56.168Z,1006.09
2017-04-18T11:28:56.203Z,1006.09
2017-04-18T11:29:56.235Z,1006.1
2017-04-18T11:30:56.269Z,1006.13
2017-04-18T11:31:56.308Z,1006.16
2017-04-18T11:32:56.339Z,1006.16
2017-04-18T11:33:56.372Z,1006.21
2017-04-18T11:34:56.405Z,1006.19
2017-04-18T11:35:56.440Z,1006.16
2017-04-18T11:36:56.474Z,1006.19
2017-04-18T11:37:56.509Z,1006.2
2017-04-18T11:38:56.544Z,1006.22
2017-04-18T11:39:56.578Z,1006.25
2017-04-18T11:40:56.611Z,1006.21
2017-04-18T11:41:56.646Z,1006.26
2017-04-18T11:42:56.681Z,1006.27
2017-04-18T11:43:56.717Z,1006.23
2017-04-18T11:44:56.750Z,1006.18
2017-04-18T11:45:56.785Z,1006.21
2017-04-18T11:46:56.821Z,1006.26
2017-04-18T11:47:56.854Z,1006.22
2017-04-18T11:48:56.889Z,1006.26
2017-04-18T11:49:56.928Z,1006.26
2017-04-18T11:50:56.958Z,1006.29
2017-04-18T11:51:56.993Z,1006.3
2017-04-18T11:52:57.027Z,1006.26
2017-04-18T11:53:57.062Z,1006.27
2017-04-18T11:54:57.097Z,1006.25
2017-04-18T11:55:57.133Z,1006.31
2017-04-18T11:56:57.167Z,1006.28
2017-04-18T11:57:57.201Z,1006.29
2017-04-18T11:58:57.236Z,1006.28
2017-04-18T11:59:57.271Z,1006.33
2017-04-18T12:00:57.306Z,1006.29
2017-04-18T12:01:57.340Z,1006.32
2017-04-18T12:02:57.375Z,1006.35
2017-04-18T12:03:57.409Z,1006.4
2017-04-18T12:04:57.443Z,1006.41
2017-04-18T12:05:57.477Z,1006.4
2017-04-18T12:06:57.514Z,1006.41
2017-04-18T12:07:57.547Z,1006.44
2017-04-18T12:08:57.581Z,1006.43